Time;durP1;ratioP1;P1;durP2;ratioP2;P2;SDS_P1;SDS_P2;PMS_P1;PMS_P2;Temp;Humidity;BMP_temperature;BMP_pressure;BME280_temperature;BME280_humidity;BME280_pressure;Samples;Min_cycle;Max_cycle;Signal;HPM_P1;HPM_P2
2021/06/27 00:00:29;;;;;;;6.55;5.95;;;20.90;98.40;;;;;;4904301;29;20115;-64
2021/06/27 00:02:56;;;;;;;9.45;8.35;;;20.90;98.40;;;;;;4912563;29;20107;-64
2021/06/27 00:05:25;;;;;;;12.77;8.52;;;20.90;98.50;;;;;;4912365;29;20056;-65
2021/06/27 00:07:52;;;;;;;10.05;7.55;;;20.80;98.60;;;;;;4910664;29;20028;-65
2021/06/27 00:10:40;;;;;;;6.78;6.18;;;20.80;98.70;;;;;;4905051;29;20493;-65
2021/06/27 00:13:07;;;;;;;6.50;5.78;;;20.70;99.00;;;;;;4902757;29;20045;-65
2021/06/27 00:15:40;;;;;;;6.07;5.57;;;20.70;99.10;;;;;;4903107;29;20034;-65
2021/06/27 00:18:09;;;;;;;6.95;6.25;;;20.60;99.20;;;;;;4924881;29;20020;-67
2021/06/27 00:20:36;;;;;;;6.57;5.85;;;20.60;99.30;;;;;;4898311;29;20037;-67
2021/06/27 00:23:03;;;;;;;5.88;5.38;;;20.60;99.10;;;;;;4894537;29;20463;-66
2021/06/27 00:25:31;;;;;;;6.40;5.32;;;20.60;99.20;;;;;;4893925;29;20060;-66
2021/06/27 00:27:58;;;;;;;6.50;5.75;;;20.50;99.20;;;;;;4893172;29;20240;-67
2021/06/27 00:30:26;;;;;;;6.60;5.65;;;20.50;99.20;;;;;;4893423;29;20382;-66
2021/06/27 00:32:52;;;;;;;6.40;5.80;;;20.60;99.20;;;;;;4894496;29;20032;-67
2021/06/27 00:35:19;;;;;;;6.28;5.60;;;20.60;99.30;;;;;;4893930;29;20040;-67
2021/06/27 00:37:46;;;;;;;6.40;5.43;;;20.60;99.40;;;;;;4893352;29;20150;-66
2021/06/27 00:40:18;;;;;;;7.40;6.20;;;20.50;99.50;;;;;;4894155;29;20033;-67
2021/06/27 00:42:44;;;;;;;6.60;5.78;;;20.50;99.50;;;;;;4893669;29;20028;-65
2021/06/27 00:45:13;;;;;;;11.82;7.95;;;20.50;99.60;;;;;;4894233;29;20024;-66
2021/06/27 00:47:41;;;;;;;8.18;6.53;;;20.40;99.70;;;;;;4893083;29;20032;-65
2021/06/27 00:50:18;;;;;;;8.18;7.22;;;20.40;99.90;;;;;;4893881;29;20071;-65
2021/06/27 00:52:44;;;;;;;6.70;6.10;;;20.30;99.90;;;;;;4893465;29;20052;-66
2021/06/27 00:55:10;;;;;;;6.47;5.78;;;20.30;99.90;;;;;;4894055;29;20478;-65
2021/06/27 00:57:38;;;;;;;5.80;5.30;;;20.30;99.90;;;;;;4894123;29;20028;-66
2021/06/27 01:00:07;;;;;;;6.97;6.10;;;20.30;99.90;;;;;;4893186;29;20063;-65
2021/06/27 01:02:33;;;;;;;8.95;6.72;;;20.30;99.90;;;;;;4893816;29;20135;-65
2021/06/27 01:05:00;;;;;;;10.43;6.40;;;20.30;99.90;;;;;;4892973;29;20400;-65
2021/06/27 01:07:26;;;;;;;6.10;5.57;;;20.30;99.90;;;;;;4895507;29;20088;-66
2021/06/27 01:09:51;;;;;;;6.05;5.45;;;20.20;99.90;;;;;;4893326;29;20045;-65
2021/06/27 01:12:17;;;;;;;6.88;5.88;;;20.30;99.90;;;;;;4897831;29;20033;-65
2021/06/27 01:14:42;;;;;;;5.28;4.88;;;20.20;99.90;;;;;;4896850;29;20119;-65
2021/06/27 01:17:08;;;;;;;7.93;6.43;;;20.20;99.90;;;;;;4897207;29;20043;-65
2021/06/27 01:19:34;;;;;;;7.68;5.53;;;20.20;99.90;;;;;;4897390;29;20178;-66
2021/06/27 01:22:00;;;;;;;7.03;6.03;;;20.10;99.90;;;;;;4897147;29;20501;-69
2021/06/27 01:24:27;;;;;;;5.80;5.30;;;20.10;99.90;;;;;;4898836;29;20025;-67
2021/06/27 01:26:53;;;;;;;7.20;5.38;;;20.00;99.90;;;;;;4898514;29;20033;-67
2021/06/27 01:29:19;;;;;;;6.00;5.50;;;20.00;99.90;;;;;;4897539;29;20374;-67
2021/06/27 01:31:45;;;;;;;6.22;5.65;;;20.00;99.90;;;;;;4897149;29;20187;-67
2021/06/27 01:34:13;;;;;;;6.60;5.57;;;20.00;99.90;;;;;;4899196;29;20036;-67
2021/06/27 01:36:39;;;;;;;7.57;5.03;;;20.00;99.90;;;;;;4898761;29;20044;-66
2021/06/27 01:39:05;;;;;;;9.43;6.00;;;20.00;99.90;;;;;;4898331;29;20025;-66
2021/06/27 01:41:30;;;;;;;7.25;5.65;;;20.00;99.90;;;;;;4897488;29;20048;-66
2021/06/27 01:43:56;;;;;;;5.85;5.20;;;20.00;99.90;;;;;;4897929;29;20454;-65
2021/06/27 01:46:22;;;;;;;5.25;4.75;;;20.00;99.90;;;;;;4897309;29;20390;-66
2021/06/27 01:48:47;;;;;;;7.85;5.30;;;20.00;99.90;;;;;;4896340;29;20071;-65
2021/06/27 01:51:13;;;;;;;7.78;5.88;;;20.00;99.90;;;;;;4898458;29;20037;-66
2021/06/27 01:53:40;;;;;;;9.57;5.85;;;20.00;99.90;;;;;;4898524;29;20037;-67
2021/06/27 01:56:07;;;;;;;9.15;5.47;;;20.00;99.90;;;;;;4898640;29;20035;-67
2021/06/27 01:58:37;;;;;;;6.22;5.30;;;20.00;99.90;;;;;;4898150;29;20029;-66
2021/06/27 02:01:06;;;;;;;6.82;4.95;;;20.00;99.90;;;;;;4896141;29;20040;-66
2021/06/27 02:03:32;;;;;;;6.97;6.28;;;20.10;99.90;;;;;;4898223;29;20048;-65
2021/06/27 02:05:58;;;;;;;7.70;5.30;;;20.10;99.90;;;;;;4896252;29;20032;-66
2021/06/27 02:08:33;;;;;;;5.88;5.38;;;20.10;99.90;;;;;;4896784;29;20474;-66
2021/06/27 02:11:00;;;;;;;7.80;5.50;;;20.00;99.90;;;;;;4897522;29;20079;-66
2021/06/27 02:13:26;;;;;;;6.25;5.63;;;20.00;99.90;;;;;;4898120;29;20028;-66
2021/06/27 02:15:52;;;;;;;5.20;4.70;;;20.00;99.90;;;;;;4896287;29;20036;-66
2021/06/27 02:18:30;;;;;;;7.13;5.50;;;20.00;99.90;;;;;;4897825;29;20029;-66
2021/06/27 02:20:58;;;;;;;8.98;5.10;;;20.00;99.90;;;;;;4896098;29;20119;-65
2021/06/27 02:23:24;;;;;;;6.32;5.38;;;20.10;99.90;;;;;;4895674;29;20196;-65
2021/06/27 02:25:50;;;;;;;6.00;5.40;;;20.00;99.90;;;;;;4897449;29;20443;-66
2021/06/27 02:28:16;;;;;;;7.82;5.57;;;20.10;99.90;;;;;;4898200;29;20080;-66
2021/06/27 02:30:42;;;;;;;6.20;5.60;;;20.10;99.90;;;;;;4897456;29;20135;-65
2021/06/27 02:33:08;;;;;;;7.78;5.78;;;20.20;99.90;;;;;;4895805;29;20044;-67
2021/06/27 02:35:33;;;;;;;8.25;5.45;;;20.20;99.90;;;;;;4896296;29;20414;-66
2021/06/27 02:37:59;;;;;;;6.30;5.22;;;20.20;99.90;;;;;;4897469;29;20111;-65
2021/06/27 02:40:25;;;;;;;6.70;5.20;;;20.20;99.90;;;;;;4897552;29;20055;-65
2021/06/27 02:42:51;;;;;;;6.38;5.53;;;20.10;99.90;;;;;;4897010;29;20450;-65
2021/06/27 02:45:16;;;;;;;6.10;5.47;;;20.10;99.90;;;;;;4897415;29;20116;-65
2021/06/27 02:47:42;;;;;;;7.20;5.15;;;20.10;99.90;;;;;;4896261;29;20029;-65
2021/06/27 02:50:12;;;;;;;7.47;5.82;;;20.10;99.90;;;;;;4897047;29;20055;-66
2021/06/27 02:52:38;;;;;;;7.47;5.43;;;20.10;99.90;;;;;;4896156;29;20123;-66
2021/06/27 02:55:05;;;;;;;6.28;5.68;;;20.00;99.90;;;;;;4896889;29;20347;-66
2021/06/27 02:57:31;;;;;;;6.55;5.90;;;19.80;99.90;;;;;;4895948;29;20120;-64
2021/06/27 02:59:57;;;;;;;6.25;5.68;;;19.80;99.90;;;;;;4896353;29;20395;-65
2021/06/27 03:02:23;;;;;;;6.78;6.07;;;19.90;99.90;;;;;;4895969;29;20144;-65
2021/06/27 03:04:48;;;;;;;6.22;5.63;;;19.90;99.90;;;;;;4896653;29;20033;-66
2021/06/27 03:07:14;;;;;;;6.63;5.88;;;19.90;99.90;;;;;;4895818;29;20040;-66
2021/06/27 03:09:39;;;;;;;7.45;5.95;;;19.80;99.90;;;;;;4896779;29;20076;-65
2021/06/27 03:12:06;;;;;;;5.97;5.40;;;19.80;99.90;;;;;;4895212;29;20314;-66
2021/06/27 03:14:31;;;;;;;7.32;6.50;;;19.80;99.90;;;;;;4896880;29;20033;-66
2021/06/27 03:16:57;;;;;;;6.22;5.63;;;19.80;99.90;;;;;;4894999;29;20029;-66
2021/06/27 03:19:22;;;;;;;9.05;5.90;;;19.80;99.90;;;;;;4895793;29;20046;-66
2021/06/27 03:21:48;;;;;;;12.70;6.13;;;19.90;99.90;;;;;;4896556;29;20032;-66
2021/06/27 03:24:14;;;;;;;6.88;5.57;;;19.90;99.90;;;;;;4897126;29;20033;-66
2021/06/27 03:26:41;;;;;;;6.07;5.53;;;19.90;99.90;;;;;;4895685;29;20029;-65
2021/06/27 03:29:06;;;;;;;6.63;5.95;;;19.80;99.90;;;;;;4896217;29;20195;-66
2021/06/27 03:31:32;;;;;;;8.50;6.13;;;19.90;99.90;;;;;;4896807;29;20120;-65
2021/06/27 03:33:58;;;;;;;5.93;5.25;;;19.90;99.90;;;;;;4894422;29;20133;-65
2021/06/27 03:36:24;;;;;;;7.28;5.85;;;19.90;99.90;;;;;;4894937;29;20032;-65
2021/06/27 03:39:10;;;;;;;7.03;5.10;;;19.80;99.90;;;;;;4894667;29;20084;-67
2021/06/27 03:41:54;;;;;;;10.20;5.38;;;19.80;99.90;;;;;;4896420;29;20495;-66
2021/06/27 03:44:23;;;;;;;6.07;5.35;;;19.80;99.90;;;;;;4896622;29;20037;-66
2021/06/27 03:46:49;;;;;;;10.10;5.68;;;19.80;99.90;;;;;;4894624;29;20442;-67
2021/06/27 03:49:15;;;;;;;6.25;5.45;;;19.90;99.90;;;;;;4896794;29;20487;-66
2021/06/27 03:51:42;;;;;;;7.97;5.10;;;19.70;99.90;;;;;;4895107;29;20036;-67
2021/06/27 03:54:08;;;;;;;6.50;5.63;;;19.80;99.90;;;;;;4894634;29;20393;-66
2021/06/27 03:56:34;;;;;;;7.07;6.38;;;19.80;99.90;;;;;;4896593;29;20119;-66
2021/06/27 03:59:00;;;;;;;8.63;6.10;;;19.80;99.90;;;;;;4894279;29;20056;-67
2021/06/27 04:01:25;;;;;;;6.55;5.95;;;19.80;99.90;;;;;;4895025;29;20040;-66
2021/06/27 04:03:51;;;;;;;8.82;6.53;;;19.80;99.90;;;;;;4894283;29;20160;-67
2021/06/27 04:06:17;;;;;;;6.72;6.03;;;19.80;99.90;;;;;;4895970;29;20390;-65
2021/06/27 04:08:42;;;;;;;6.50;5.90;;;19.70;99.90;;;;;;4894427;29;20446;-66
2021/06/27 04:11:08;;;;;;;8.25;5.35;;;19.80;99.90;;;;;;4893804;29;20419;-66
2021/06/27 04:13:35;;;;;;;5.95;5.35;;;19.80;99.90;;;;;;4894706;29;20037;-66
2021/06/27 04:16:02;;;;;;;9.15;5.82;;;19.90;99.90;;;;;;4895579;29;20029;-65
2021/06/27 04:18:28;;;;;;;8.02;5.50;;;20.00;99.90;;;;;;4894847;29;20033;-65
2021/06/27 04:20:55;;;;;;;6.93;5.88;;;19.90;99.90;;;;;;4895666;29;20116;-65
2021/06/27 04:23:21;;;;;;;8.65;5.72;;;19.90;99.90;;;;;;4894539;29;20034;-66
2021/06/27 04:25:46;;;;;;;6.35;5.75;;;19.90;99.90;;;;;;4894646;29;20033;-65
2021/06/27 04:28:12;;;;;;;9.18;6.57;;;19.90;99.90;;;;;;4894012;29;20115;-65
2021/06/27 04:30:39;;;;;;;8.82;6.32;;;19.80;99.90;;;;;;4895561;29;20135;-65
2021/06/27 04:33:07;;;;;;;9.23;5.90;;;19.70;99.90;;;;;;4893803;29;20041;-66
2021/06/27 04:35:35;;;;;;;6.97;6.28;;;19.80;99.90;;;;;;4894322;29;20466;-66
2021/06/27 04:38:02;;;;;;;6.63;5.97;;;19.80;99.90;;;;;;4894929;29;20032;-65
2021/06/27 04:40:28;;;;;;;6.90;6.20;;;19.80;99.90;;;;;;4894503;29;20032;-67
2021/06/27 04:42:53;;;;;;;9.80;6.40;;;19.80;99.90;;;;;;4894939;29;20088;-66
2021/06/27 04:45:20;;;;;;;8.80;6.28;;;19.80;99.90;;;;;;4893879;29;20079;-66
2021/06/27 04:47:46;;;;;;;9.43;6.20;;;19.80;99.90;;;;;;4894119;29;20638;-66
2021/06/27 04:50:12;;;;;;;7.90;6.05;;;19.90;99.90;;;;;;4893648;29;20181;-66
2021/06/27 04:52:37;;;;;;;8.13;6.05;;;19.90;99.90;;;;;;4894327;29;20041;-65
2021/06/27 04:55:04;;;;;;;5.80;5.30;;;19.90;99.90;;;;;;4895035;29;20051;-66
2021/06/27 04:57:31;;;;;;;7.97;5.30;;;20.00;99.90;;;;;;4893786;29;20069;-66
2021/06/27 04:59:56;;;;;;;6.82;6.15;;;20.10;99.90;;;;;;4894887;29;20510;-65
2021/06/27 05:02:22;;;;;;;7.88;5.78;;;20.10;99.90;;;;;;4895474;29;20036;-67
2021/06/27 05:04:47;;;;;;;8.63;5.97;;;20.00;99.90;;;;;;4894122;29;20119;-65
2021/06/27 05:07:13;;;;;;;8.25;6.35;;;20.20;99.90;;;;;;4893300;29;20039;-66
2021/06/27 05:09:38;;;;;;;7.63;6.63;;;20.20;99.90;;;;;;4895158;29;20035;-66
2021/06/27 05:12:05;;;;;;;7.85;6.05;;;20.10;99.90;;;;;;4893224;29;20119;-65
2021/06/27 05:14:30;;;;;;;6.70;6.00;;;20.20;99.90;;;;;;4895282;29;20494;-65
2021/06/27 05:16:56;;;;;;;6.72;6.03;;;20.20;99.90;;;;;;4893472;29;20033;-65
2021/06/27 05:19:22;;;;;;;6.97;5.82;;;20.30;99.90;;;;;;4896917;29;20438;-66
2021/06/27 05:21:47;;;;;;;7.03;6.28;;;20.30;99.90;;;;;;4895566;29;20133;-66
2021/06/27 05:24:13;;;;;;;6.72;6.13;;;20.40;99.90;;;;;;4893451;29;20052;-67
2021/06/27 05:26:38;;;;;;;6.82;5.60;;;20.40;99.90;;;;;;4894036;29;20534;-65
2021/06/27 05:29:04;;;;;;;6.55;5.93;;;20.50;99.90;;;;;;4893161;29;20063;-65
2021/06/27 05:31:33;;;;;;;9.57;6.75;;;20.60;99.90;;;;;;4893765;29;20088;-65
2021/06/27 05:33:59;;;;;;;6.05;5.43;;;20.60;99.90;;;;;;4893181;29;20029;-65
2021/06/27 05:36:25;;;;;;;6.50;5.65;;;20.70;99.90;;;;;;4893670;29;20025;-66
2021/06/27 05:38:50;;;;;;;7.35;6.30;;;20.80;99.90;;;;;;4895273;29;20029;-66
2021/06/27 05:41:16;;;;;;;6.35;5.32;;;20.90;99.90;;;;;;4893131;29;20032;-66
2021/06/27 05:43:42;;;;;;;6.28;5.68;;;20.90;99.90;;;;;;4894923;29;20032;-66
2021/06/27 05:46:07;;;;;;;7.50;5.70;;;21.00;99.90;;;;;;4894605;29;20024;-65
2021/06/27 05:48:33;;;;;;;5.65;5.15;;;21.00;99.90;;;;;;4893874;29;20051;-65
2021/06/27 05:50:59;;;;;;;7.85;5.65;;;21.00;99.90;;;;;;4894261;29;20096;-66
2021/06/27 05:53:24;;;;;;;6.43;5.10;;;21.10;99.90;;;;;;4893698;29;20477;-66
2021/06/27 05:56:08;;;;;;;6.13;5.40;;;21.00;99.90;;;;;;4893656;29;20104;-65
2021/06/27 05:58:38;;;;;;;6.05;5.40;;;21.00;99.90;;;;;;4894285;29;20036;-65
2021/06/27 06:01:05;;;;;;;6.68;5.40;;;21.00;99.90;;;;;;4896185;29;20089;-65
2021/06/27 06:03:31;;;;;;;6.25;5.22;;;21.00;99.90;;;;;;4898198;29;20028;-67
2021/06/27 06:05:57;;;;;;;5.63;5.03;;;21.00;99.90;;;;;;4896647;29;20028;-67
2021/06/27 06:08:22;;;;;;;7.38;5.32;;;21.00;99.90;;;;;;4897944;29;20039;-66
2021/06/27 06:10:48;;;;;;;13.13;5.65;;;21.00;99.90;;;;;;4897738;29;20059;-65
2021/06/27 06:13:13;;;;;;;8.20;5.90;;;21.00;99.90;;;;;;4897101;29;20056;-65
2021/06/27 06:15:39;;;;;;;7.13;5.53;;;21.10;99.90;;;;;;4898142;29;20072;-65
2021/06/27 06:18:05;;;;;;;7.03;6.07;;;21.00;99.90;;;;;;4896091;29;20060;-65
2021/06/27 06:20:30;;;;;;;7.15;5.00;;;21.10;99.80;;;;;;4896648;29;20119;-66
2021/06/27 06:22:57;;;;;;;5.68;5.18;;;21.20;99.90;;;;;;4896752;29;20491;-65
2021/06/27 06:25:22;;;;;;;7.50;5.35;;;21.30;99.90;;;;;;4897750;29;20392;-66
2021/06/27 06:27:49;;;;;;;9.95;5.38;;;21.60;99.70;;;;;;4896541;29;20096;-65
2021/06/27 06:30:15;;;;;;;8.02;5.70;;;21.70;99.40;;;;;;4895472;29;20040;-65
2021/06/27 06:32:41;;;;;;;6.10;5.45;;;21.80;99.40;;;;;;4896402;29;20341;-65
2021/06/27 06:35:07;;;;;;;7.53;5.07;;;21.90;99.30;;;;;;4896593;29;20191;-64
2021/06/27 06:37:33;;;;;;;8.60;5.85;;;22.00;99.20;;;;;;4896456;29;20072;-65
2021/06/27 06:39:58;;;;;;;8.52;5.65;;;22.20;99.00;;;;;;4895412;29;20135;-74
2021/06/27 06:42:24;;;;;;;7.93;5.40;;;22.20;99.10;;;;;;4895710;29;20470;-65
2021/06/27 06:44:49;;;;;;;6.55;5.88;;;22.20;98.80;;;;;;4896433;29;20427;-65
2021/06/27 06:47:15;;;;;;;7.95;5.75;;;22.20;99.00;;;;;;4895978;29;20124;-66
2021/06/27 06:49:41;;;;;;;8.05;5.03;;;22.30;98.80;;;;;;4896330;29;20053;-65
2021/06/27 06:52:07;;;;;;;8.43;4.78;;;22.50;98.50;;;;;;4895923;29;20051;-66
2021/06/27 06:54:32;;;;;;;6.60;5.30;;;22.50;98.50;;;;;;4895820;29;20025;-66
2021/06/27 06:56:59;;;;;;;7.28;5.13;;;22.60;98.40;;;;;;4896160;29;20374;-66
2021/06/27 06:59:25;;;;;;;7.20;5.30;;;22.50;98.20;;;;;;4895861;29;20140;-65
2021/06/27 07:01:50;;;;;;;7.20;5.32;;;22.60;98.00;;;;;;4895537;29;20507;-65
2021/06/27 07:04:16;;;;;;;6.40;5.38;;;22.40;98.10;;;;;;4896884;29;20036;-65
2021/06/27 07:06:43;;;;;;;8.82;5.65;;;22.20;98.10;;;;;;4895915;29;20119;-65
2021/06/27 07:09:09;;;;;;;8.00;5.85;;;22.20;98.80;;;;;;4894917;29;20029;-65
2021/06/27 07:11:35;;;;;;;6.78;5.32;;;22.30;98.60;;;;;;4895915;29;20359;-65
2021/06/27 07:14:01;;;;;;;6.80;5.45;;;22.30;98.80;;;;;;4896511;29;20360;-68
2021/06/27 07:16:27;;;;;;;7.63;5.28;;;22.40;98.70;;;;;;4897295;29;20029;-68
2021/06/27 07:18:53;;;;;;;6.30;5.63;;;22.50;98.30;;;;;;4896012;29;20080;-66
2021/06/27 07:21:19;;;;;;;9.20;5.57;;;22.80;98.10;;;;;;4895084;29;20450;-67
2021/06/27 07:23:44;;;;;;;5.97;5.38;;;22.90;97.90;;;;;;4896993;29;20032;-66
2021/06/27 07:26:10;;;;;;;6.95;5.25;;;23.00;97.70;;;;;;4894710;29;20029;-67
2021/06/27 07:28:36;;;;;;;5.78;5.22;;;22.90;97.60;;;;;;4896858;29;20151;-65
2021/06/27 07:31:02;;;;;;;5.68;5.18;;;23.00;97.90;;;;;;4894541;29;20037;-68
2021/06/27 07:33:27;;;;;;;5.38;4.90;;;23.20;97.90;;;;;;4896683;29;20036;-66
2021/06/27 07:35:53;;;;;;;6.25;5.22;;;23.30;97.40;;;;;;4895512;29;20462;-66
2021/06/27 07:38:19;;;;;;;9.90;5.88;;;23.30;97.50;;;;;;4894691;29;20072;-66
2021/06/27 07:40:45;;;;;;;7.80;5.40;;;23.50;97.00;;;;;;4895455;29;20059;-67
2021/06/27 07:43:11;;;;;;;6.18;5.30;;;23.50;97.20;;;;;;4894554;29;20469;-66
2021/06/27 07:45:38;;;;;;;8.45;5.43;;;23.70;97.40;;;;;;4894778;29;20029;-65
2021/06/27 07:48:04;;;;;;;5.78;4.93;;;23.90;97.20;;;;;;4894576;29;20029;-66
2021/06/27 07:50:30;;;;;;;5.78;5.28;;;23.90;97.20;;;;;;4895283;29;20131;-66
2021/06/27 07:52:55;;;;;;;6.03;4.95;;;24.10;96.60;;;;;;4895211;29;20209;-65
2021/06/27 07:55:23;;;;;;;5.50;5.00;;;24.30;96.50;;;;;;4895384;29;20025;-65
2021/06/27 07:57:49;;;;;;;5.68;5.28;;;24.10;96.40;;;;;;4894499;29;20033;-65
2021/06/27 08:00:15;;;;;;;5.40;4.80;;;24.10;96.60;;;;;;4893826;29;20143;-66
2021/06/27 08:02:41;;;;;;;5.45;4.95;;;24.00;96.70;;;;;;4894656;29;20048;-66
2021/06/27 08:05:07;;;;;;;8.48;5.13;;;24.00;96.30;;;;;;4895303;29;20029;-66
2021/06/27 08:07:33;;;;;;;8.98;5.85;;;23.70;96.10;;;;;;4894471;29;20143;-66
2021/06/27 08:09:59;;;;;;;5.40;4.95;;;23.90;96.40;;;;;;4894913;29;20492;-65
2021/06/27 08:12:25;;;;;;;5.88;5.38;;;23.70;96.70;;;;;;4894641;29;20132;-66
2021/06/27 08:14:50;;;;;;;6.22;4.95;;;24.00;97.00;;;;;;4896867;29;20032;-65
2021/06/27 08:17:16;;;;;;;5.80;5.28;;;24.10;96.60;;;;;;4894747;29;20123;-66
2021/06/27 08:19:42;;;;;;;5.75;5.25;;;24.40;96.60;;;;;;4896496;29;20025;-65
2021/06/27 08:22:08;;;;;;;5.60;5.03;;;24.70;96.90;;;;;;4894187;29;20080;-66
2021/06/27 08:24:33;;;;;;;6.85;5.18;;;24.70;96.10;;;;;;4896936;29;20107;-66
2021/06/27 08:26:59;;;;;;;5.03;4.63;;;24.80;96.40;;;;;;4895147;29;20037;-66
2021/06/27 08:29:25;;;;;;;5.85;5.35;;;25.20;96.50;;;;;;4895828;29;20165;-66
2021/06/27 08:31:51;;;;;;;7.75;4.72;;;25.50;96.10;;;;;;4894994;29;20041;-67
2021/06/27 08:34:16;;;;;;;4.90;4.50;;;25.70;95.20;;;;;;4895915;29;20041;-66
2021/06/27 08:36:43;;;;;;;4.65;4.25;;;25.80;94.90;;;;;;4895224;29;20032;-67
2021/06/27 08:39:09;;;;;;;5.38;4.72;;;25.90;95.30;;;;;;4894540;29;20033;-67
2021/06/27 08:41:34;;;;;;;5.20;4.55;;;26.10;94.60;;;;;;4894956;29;20045;-67
2021/06/27 08:44:01;;;;;;;5.20;4.75;;;26.20;93.70;;;;;;4896143;29;20039;-67
2021/06/27 08:46:28;;;;;;;6.10;4.90;;;26.50;93.40;;;;;;4894059;29;20032;-67
2021/06/27 08:48:55;;;;;;;7.05;5.25;;;26.40;93.30;;;;;;4894719;29;20076;-66
2021/06/27 08:51:21;;;;;;;7.40;5.00;;;26.70;92.80;;;;;;4893656;29;20037;-66
2021/06/27 08:53:47;;;;;;;7.68;4.43;;;26.90;91.90;;;;;;4894912;29;20119;-66
2021/06/27 08:56:13;;;;;;;7.78;4.25;;;27.10;92.50;;;;;;4894119;29;20405;-67
2021/06/27 08:58:44;;;;;;;5.60;4.38;;;27.20;92.40;;;;;;4894567;29;20025;-67
2021/06/27 09:01:21;;;;;;;4.32;3.97;;;27.20;92.10;;;;;;4893845;29;20041;-66
2021/06/27 09:03:48;;;;;;;5.40;4.53;;;27.50;91.90;;;;;;4894521;29;20542;-67
2021/06/27 09:06:27;;;;;;;5.65;4.35;;;27.90;91.40;;;;;;4894052;29;20024;-67
2021/06/27 09:09:13;;;;;;;4.47;4.03;;;27.50;91.30;;;;;;4894471;29;20035;-66
2021/06/27 09:11:57;;;;;;;4.68;4.18;;;27.10;91.50;;;;;;4894196;29;20039;-68
2021/06/27 09:14:36;;;;;;;5.15;4.75;;;27.60;91.10;;;;;;4893533;29;20072;-66
2021/06/27 09:17:15;;;;;;;4.68;4.28;;;27.90;91.20;;;;;;4895803;29;20032;-68
2021/06/27 09:19:55;;;;;;;5.57;3.88;;;28.10;90.80;;;;;;4894337;29;20497;-67
2021/06/27 09:22:26;;;;;;;;;;;28.10;90.90;;;;;;4894085;29;20036;-67
2021/06/27 09:24:52;;;;;;;12.55;4.57;;;28.10;90.00;;;;;;4894661;29;19973;-66
2021/06/27 09:27:20;;;;;;;3.78;3.47;;;28.70;89.50;;;;;;4893705;29;20036;-66
2021/06/27 09:29:49;;;;;;;4.47;4.13;;;29.00;88.60;;;;;;4893559;29;20123;-67
2021/06/27 09:32:20;;;;;;;4.82;4.32;;;29.20;88.60;;;;;;4901395;29;20054;-58
2021/06/27 09:34:47;;;;;;;;;;;29.30;87.70;;;;;;4904429;29;20067;-56
2021/06/27 09:37:15;;;;;;;4.68;4.22;;;29.10;87.10;;;;;;4912809;29;19950;-62
2021/06/27 09:40:00;;;;;;;4.20;3.90;;;29.40;87.80;;;;;;4916165;29;20044;-55
2021/06/27 09:42:27;;;;;;;4.78;4.05;;;29.50;87.50;;;;;;4911484;29;20028;-55
2021/06/27 09:45:05;;;;;;;4.00;3.70;;;29.80;87.30;;;;;;4915907;29;20036;-56
2021/06/27 09:47:32;;;;;;;5.45;4.18;;;29.60;85.90;;;;;;4914494;29;20058;-56
2021/06/27 09:49:59;;;;;;;4.90;4.35;;;29.20;85.10;;;;;;4915735;29;20442;-56
2021/06/27 09:52:39;;;;;;;4.60;4.20;;;29.00;84.60;;;;;;4899229;29;20068;-55
2021/06/27 09:55:13;;;;;;;3.53;3.23;;;29.10;86.10;;;;;;4915245;29;20047;-56
2021/06/27 09:57:40;;;;;;;4.07;3.75;;;29.10;85.90;;;;;;4915201;29;20031;-56
2021/06/27 10:00:22;;;;;;;5.45;3.42;;;29.20;85.70;;;;;;4914996;29;20135;-57
2021/06/27 10:03:08;;;;;;;4.10;3.80;;;29.10;84.70;;;;;;4915507;29;20032;-56
2021/06/27 10:05:35;;;;;;;3.50;3.20;;;29.50;85.10;;;;;;4911685;29;20039;-57
2021/06/27 10:08:01;;;;;;;3.53;2.78;;;29.50;82.10;;;;;;4915891;29;20110;-56
2021/06/27 10:10:27;;;;;;;3.55;3.25;;;29.50;81.70;;;;;;4915228;29;20565;-57
2021/06/27 10:12:53;;;;;;;3.50;3.20;;;29.00;82.30;;;;;;4914287;29;20060;-57
2021/06/27 10:15:19;;;;;;;2.90;2.70;;;29.30;81.00;;;;;;4913192;29;20028;-55
2021/06/27 10:17:46;;;;;;;3.60;2.90;;;29.50;81.70;;;;;;4914338;29;20031;-56
2021/06/27 10:20:14;;;;;;;3.15;2.92;;;29.80;79.90;;;;;;4914176;29;20032;-64
2021/06/27 10:22:41;;;;;;;6.95;4.13;;;30.10;77.60;;;;;;4915882;29;20035;-58
2021/06/27 10:25:12;;;;;;;3.17;2.88;;;29.60;77.00;;;;;;4914252;29;20043;-56
2021/06/27 10:27:41;;;;;;;8.80;3.63;;;30.00;77.60;;;;;;4914346;29;20028;-57
2021/06/27 10:30:10;;;;;;;10.32;4.25;;;29.80;75.90;;;;;;4913883;29;20099;-56
2021/06/27 10:32:42;;;;;;;5.57;3.10;;;29.60;77.70;;;;;;4914212;29;20481;-63
2021/06/27 10:35:11;;;;;;;6.70;3.17;;;29.40;76.70;;;;;;4913539;29;20043;-58
2021/06/27 10:37:43;;;;;;;5.38;3.50;;;29.30;78.40;;;;;;4912418;29;20048;-56
2021/06/27 10:40:11;;;;;;;2.63;2.42;;;29.50;76.00;;;;;;4912644;29;20076;-56
2021/06/27 10:42:49;;;;;;;5.03;2.97;;;29.40;76.60;;;;;;4912100;29;20032;-55
2021/06/27 10:45:20;;;;;;;2.70;2.50;;;29.50;77.40;;;;;;4911642;29;20127;-63
2021/06/27 10:47:47;;;;;;;4.10;2.55;;;29.30;76.20;;;;;;4914350;29;20175;-56
2021/06/27 10:50:15;;;;;;;4.53;2.80;;;29.30;77.60;;;;;;4912676;29;20104;-64
2021/06/27 10:52:51;;;;;;;3.15;2.90;;;29.80;77.70;;;;;;4914361;29;20032;-57
2021/06/27 10:55:26;;;;;;;3.13;2.55;;;30.10;76.00;;;;;;4911498;29;20502;-57
2021/06/27 10:58:00;;;;;;;4.18;2.80;;;30.30;75.10;;;;;;4914209;29;20346;-56
2021/06/27 11:00:28;;;;;;;3.28;2.97;;;30.30;74.80;;;;;;4911371;29;20062;-57
2021/06/27 11:03:14;;;;;;;3.38;2.65;;;30.50;75.20;;;;;;4912342;29;20058;-59
2021/06/27 11:05:43;;;;;;;7.28;2.75;;;30.60;76.70;;;;;;4914336;29;20114;-55
2021/06/27 11:08:12;;;;;;;2.97;2.78;;;31.00;76.70;;;;;;4914377;29;20028;-55
2021/06/27 11:10:37;;;;;;;3.10;2.65;;;31.00;76.50;;;;;;4913392;29;20028;-56
2021/06/27 11:13:04;;;;;;;3.80;3.00;;;30.90;75.40;;;;;;4913617;29;20028;-57
2021/06/27 11:15:31;;;;;;;6.43;3.17;;;30.50;76.30;;;;;;4913086;29;20457;-57
2021/06/27 11:17:59;;;;;;;4.25;3.50;;;30.10;76.10;;;;;;4913238;29;20043;-57
2021/06/27 11:20:27;;;;;;;3.65;2.72;;;30.10;79.40;;;;;;4914519;29;20430;-55
2021/06/27 11:22:56;;;;;;;3.42;3.13;;;30.20;77.00;;;;;;4913158;29;20039;-56
2021/06/27 11:25:36;;;;;;;4.78;3.13;;;30.20;76.50;;;;;;4912119;29;20472;-56
2021/06/27 11:28:21;;;;;;;5.47;2.85;;;30.40;76.30;;;;;;4912358;29;20035;-55
2021/06/27 11:30:54;;;;;;;3.10;2.75;;;30.80;75.90;;;;;;4914669;29;20051;-56
2021/06/27 11:33:24;;;;;;;3.25;3.03;;;31.00;75.70;;;;;;4913206;29;20074;-57
2021/06/27 11:35:51;;;;;;;2.38;2.22;;;31.00;74.60;;;;;;4914503;29;20438;-57
2021/06/27 11:38:38;;;;;;;4.32;2.25;;;30.50;73.30;;;;;;4913866;29;20040;-56
2021/06/27 11:41:27;;;;;;;3.53;3.08;;;30.20;75.30;;;;;;4913316;29;20068;-55
2021/06/27 11:44:14;;;;;;;2.90;2.58;;;30.30;73.70;;;;;;4901321;29;20032;-57
2021/06/27 11:46:42;;;;;;;3.40;3.10;;;30.60;73.50;;;;;;4912404;29;20071;-57
2021/06/27 11:49:27;;;;;;;3.78;2.55;;;30.30;73.50;;;;;;4912791;29;20075;-56
2021/06/27 11:51:53;;;;;;;3.55;3.08;;;30.20;72.10;;;;;;4913379;29;20425;-56
2021/06/27 11:54:29;;;;;;;4.25;2.95;;;30.10;73.90;;;;;;4911819;29;20032;-61
2021/06/27 11:57:02;;;;;;;2.97;2.78;;;29.90;74.70;;;;;;4912802;29;20451;-58
2021/06/27 11:59:32;;;;;;;3.28;2.70;;;29.60;72.10;;;;;;4913633;29;20060;-56
2021/06/27 12:02:22;;;;;;;;;;;29.90;73.50;;;;;;4914760;29;20036;-56
2021/06/27 12:04:58;;;;;;;3.05;2.85;;;29.80;73.10;;;;;;4912536;29;19907;-56
2021/06/27 12:07:35;;;;;;;3.47;2.65;;;30.00;73.60;;;;;;4912160;29;20393;-57
2021/06/27 12:10:24;;;;;;;2.97;2.78;;;30.10;73.00;;;;;;4912530;29;20131;-57
2021/06/27 12:12:59;;;;;;;2.85;2.45;;;30.00;73.60;;;;;;4912328;29;20048;-57
2021/06/27 12:15:39;;;;;;;2.60;2.42;;;29.90;72.80;;;;;;4912236;29;20068;-57
2021/06/27 12:18:05;;;;;;;;;;;29.80;72.90;;;;;;4912968;29;20090;-57
2021/06/27 12:20:34;;;;;;;2.58;2.38;;;29.50;73.70;;;;;;4912071;29;19907;-56
2021/06/27 12:23:06;;;;;;;2.70;2.50;;;29.30;73.30;;;;;;4913247;29;20032;-60
2021/06/27 12:25:41;;;;;;;3.25;2.95;;;29.40;73.10;;;;;;4912520;29;20024;-58
2021/06/27 12:28:10;;;;;;;4.40;2.53;;;29.60;74.30;;;;;;4913144;29;20446;-58
2021/06/27 12:30:53;;;;;;;2.67;2.47;;;29.70;74.50;;;;;;4912001;29;20063;-57
2021/06/27 12:33:25;;;;;;;2.97;2.50;;;29.90;73.80;;;;;;4912037;29;20115;-57
2021/06/27 12:35:55;;;;;;;3.88;2.33;;;29.80;73.00;;;;;;4912595;29;20034;-58
2021/06/27 12:38:22;;;;;;;3.85;2.17;;;30.00;73.20;;;;;;4911657;29;20115;-56
2021/06/27 12:40:54;;;;;;;3.47;2.58;;;29.90;72.20;;;;;;4913889;29;20040;-57
2021/06/27 12:43:31;;;;;;;4.22;2.90;;;29.90;72.10;;;;;;4911970;29;20068;-65
2021/06/27 12:46:18;;;;;;;3.90;2.90;;;29.60;71.00;;;;;;4912219;29;20403;-56
2021/06/27 12:48:50;;;;;;;2.60;2.40;;;29.50;72.60;;;;;;4912408;29;20024;-56
2021/06/27 12:51:35;;;;;;;2.70;2.50;;;29.60;72.70;;;;;;4912234;29;20028;-56
2021/06/27 12:54:10;;;;;;;3.28;2.97;;;29.70;72.60;;;;;;4912220;29;20362;-56